M I D A S
Marine Information and Data Acquisition System
Tripno 709 of the Zeeleeuw from 2004-05-06 07:29:35 to 2004-05-06 13:38:23
Back to CruiseResearch ActivitiesStationsMapUnderway DataData graphs

EquipmentUnitsComment
TimeDGPSUTC
LatitudeDGPSDM.mWGS84
LongitudeDGPSDM.mWGS84
HeadingGyrodeg 
SOGDGPSknotsSpeed over ground
COGDGPSdegCourse over ground
DepthEcho soundermeters200 kHz
Missing or incorrect values are displayed as -999
Navigation data collected by the RV Zeeleeuw from 2004-05-06 07:29:35 to 2004-05-06 13:38:23
                                                                                    Next 1000 lines
Time Latitude Longitude Heading SOG COG Depth
2004-05-06 07:29:45 51°13.594 2°56.1 132.3 1.1 128 5.2
2004-05-06 07:29:50 51°13.592 2°56.103 131.7 1.2 128 5.2
2004-05-06 07:29:55 51°13.591 2°56.106 130.5 1.8 126 5.2
2004-05-06 07:30:00 51°13.589 2°56.109 129.9 2 127 5
2004-05-06 07:30:05 51°13.587 2°56.113 129.5 2.1 125 5.4
2004-05-06 07:30:10 51°13.586 2°56.118 129.1 2.2 126 5.5
2004-05-06 07:30:15 51°13.584 2°56.122 129.1 2.2 124 6
2004-05-06 07:30:20 51°13.582 2°56.126 129 2.3 125 6.3
2004-05-06 07:30:25 51°13.58 2°56.13 128.8 2.5 124 6.3
2004-05-06 07:30:30 51°13.578 2°56.135 128.3 2.7 123 6.3
2004-05-06 07:30:36 51°13.575 2°56.142 127.7 2.9 122 6.1
2004-05-06 07:30:40 51°13.574 2°56.146 126.9 3.1 121 5.9
2004-05-06 07:30:45 51°13.571 2°56.153 125.5 3.4 120 5.7
2004-05-06 07:30:50 51°13.569 2°56.16 124 3.5 118 6.3
2004-05-06 07:30:55 51°13.567 2°56.167 121.9 3.4 116 6.9
2004-05-06 07:31:00 51°13.565 2°56.174 120.8 3.5 116 7.1
2004-05-06 07:31:05 51°13.563 2°56.181 119.6 3.4 115 7.3
2004-05-06 07:31:10 51°13.561 2°56.187 118.4 3.3 113 7.5
2004-05-06 07:31:16 51°13.559 2°56.195 117.4 3.3 115 7.5
2004-05-06 07:31:20 51°13.557 2°56.201 117.3 3.5 116 7.6
2004-05-06 07:31:25 51°13.555 2°56.208 119.2 3.7 115 7.2
2004-05-06 07:31:30 51°13.551 2°56.214 124.5 3.8 126 -999
2004-05-06 07:31:35 51°13.548 2°56.221 131.2 3.7 129 7.2
2004-05-06 07:31:40 51°13.545 2°56.226 135.9 3.7 137 7.2
2004-05-06 07:31:45 51°13.541 2°56.231 141.5 3.7 138 7.2
2004-05-06 07:31:50 51°13.536 2°56.236 146.6 3.6 146 7.1
2004-05-06 07:31:55 51°13.532 2°56.239 152.4 3.4 150 5.6
2004-05-06 07:32:00 51°13.528 2°56.242 155.3 3.1 154 7.5
2004-05-06 07:32:06 51°13.525 2°56.245 157.6 2.7 152 7.7
2004-05-06 07:32:10 51°13.523 2°56.246 161.8 1.9 162 7.7
2004-05-06 07:32:15 51°13.522 2°56.248 166.4 1.1 155 7.7
2004-05-06 07:32:20 51°13.521 2°56.248 170.7 0.6 166 7.8
2004-05-06 07:32:26 51°13.521 2°56.248 173.7 0.2 123 7.8
2004-05-06 07:32:30 51°13.522 2°56.248 176.5 0.7 357 7.8
2004-05-06 07:32:36 51°13.523 2°56.248 179 1   7.3
2004-05-06 07:32:40 51°13.525 2°56.248 180.7 1.1 358 7.3
2004-05-06 07:32:46 51°13.528 2°56.248 182.3 1.5 358 -999
2004-05-06 07:32:51 51°13.53 2°56.248 183.6 1.7   -999
2004-05-06 07:32:56 51°13.532 2°56.248 184.8 1.7   -999
2004-05-06 07:33:01 51°13.534 2°56.248 185.4 1.3 355 -999
2004-05-06 07:33:06 51°13.535 2°56.247 186.3 0.6 354 -999
2004-05-06 07:33:11 51°13.534 2°56.247 189.5 0.5 201 -999
2004-05-06 07:33:16 51°13.532 2°56.246 195.8 1.2 194 -999
2004-05-06 07:33:21 51°13.53 2°56.246 201 1.7 195 -999
2004-05-06 07:33:26 51°13.528 2°56.244 207.2 1.6 203 -999
2004-05-06 07:33:31 51°13.526 2°56.243 210.5 1.5 203 -999
2004-05-06 07:33:36 51°13.524 2°56.242 212.2 1.1 204 -999
2004-05-06 07:33:41 51°13.524 2°56.241 214.7 0.4 202 -999
2004-05-06 07:33:46 51°13.524 2°56.242 217 0.1 108 -999
2004-05-06 07:33:51 51°13.525 2°56.243 218.5 0.6 41 -999
2004-05-06 07:33:56 51°13.526 2°56.244 220.2 1 41 -999
2004-05-06 07:34:01 51°13.527 2°56.246 221.4 1.4 38 -999
2004-05-06 07:34:06 51°13.53 2°56.249 222.6 1.9 42 -999
2004-05-06 07:34:11 51°13.531 2°56.252 223.6 2 42 -999
2004-05-06 07:34:16 51°13.533 2°56.254 224.4 1.9 40 -999
2004-05-06 07:34:21 51°13.535 2°56.256 224.6 1.6 39 -999
2004-05-06 07:34:26 51°13.535 2°56.256 225.6 0.5 29 -999
2004-05-06 07:34:31 51°13.535 2°56.254 229.4 0.9 237 -999
2004-05-06 07:34:36 51°13.533 2°56.251 237.5 1.6 232 -999
2004-05-06 07:34:40 51°13.532 2°56.247 244.9 2.1 246 -999
2004-05-06 07:34:46 51°13.53 2°56.241 250.4 2.6 251 -999
2004-05-06 07:34:51 51°13.53 2°56.235 257 2.9 259 -999
2004-05-06 07:34:56 51°13.529 2°56.228 264.1 3.1 261 -999
2004-05-06 07:35:00 51°13.529 2°56.223 271.4 3.1 269 5.4
2004-05-06 07:35:04 51°13.53 2°56.217 276.5 3 275 7.6
2004-05-06 07:35:10 51°13.531 2°56.21 280.6 2.8 282 7.8
2004-05-06 07:35:15 51°13.531 2°56.204 285.2 2.7 282 7.6
2004-05-06 07:35:20 51°13.533 2°56.198 288.8 2.7 286 7.7
2004-05-06 07:35:25 51°13.534 2°56.193 291 2.7 288 7.6
2004-05-06 07:35:30 51°13.535 2°56.187 293.2 2.5 293 7.6
2004-05-06 07:35:35 51°13.536 2°56.182 295.4 2.5 292 7.7
2004-05-06 07:35:40 51°13.538 2°56.178 296.9 2.4 295 7.8
2004-05-06 07:35:46 51°13.539 2°56.172 297.9 2.4 295 7.9
2004-05-06 07:35:50 51°13.54 2°56.169 298.3 1.9 297 8
2004-05-06 07:35:55 51°13.541 2°56.166 298.8 1.7 295 8
2004-05-06 07:36:00 51°13.542 2°56.164 299.7 1.4 300 7.8
2004-05-06 07:36:06 51°13.543 2°56.161 300.6 1.1 297 7.8
2004-05-06 07:36:10 51°13.544 2°56.16 301.7 1.1 301 7.8
2004-05-06 07:36:15 51°13.544 2°56.157 302.8 1 299 7.5
2004-05-06 07:36:20 51°13.545 2°56.156 303.9 1 305 7.6
2004-05-06 07:36:26 51°13.546 2°56.153 304.8 1 301 8
2004-05-06 07:36:30 51°13.547 2°56.152 305.8 1 307 7.7
2004-05-06 07:36:35 51°13.548 2°56.15 306.8 0.9 303 7.9
2004-05-06 07:36:40 51°13.548 2°56.148 307.5 0.9 308 7.6
2004-05-06 07:36:45 51°13.549 2°56.147 308 0.9 305 7.7
2004-05-06 07:36:50 51°13.55 2°56.145 308.5 0.9 312 7.7
2004-05-06 07:36:55 51°13.55 2°56.144 309 0.9 307 7.8
2004-05-06 07:37:00 51°13.551 2°56.142 309.4 0.9 310 7.9
2004-05-06 07:37:05 51°13.552 2°56.141 309.8 0.9 309 7.6
2004-05-06 07:37:10 51°13.553 2°56.139 310 1.2 305 7.8
2004-05-06 07:37:16 51°13.554 2°56.136 310 1.4 307 7.6
2004-05-06 07:37:20 51°13.555 2°56.134 308.6 1.4 305 7.9
2004-05-06 07:37:25 51°13.556 2°56.132 307 1.4 303 7.8
2004-05-06 07:37:30 51°13.557 2°56.129 305.5 1.3 304 7.9
2004-05-06 07:37:35 51°13.558 2°56.127 304.2 1.3 305 7.9
2004-05-06 07:37:40 51°13.559 2°56.124 303.4 1.3 302 7.8
2004-05-06 07:37:45 51°13.56 2°56.122 302.5 1.3 301 5.7
2004-05-06 07:37:50 51°13.561 2°56.12 301.9 1.2 299 7.5
2004-05-06 07:37:55 51°13.562 2°56.117 301 1.2 300 7.8
2004-05-06 07:38:00 51°13.563 2°56.115 300.3 1.2 298 7.4
2004-05-06 07:38:04 51°13.563 2°56.113 299.7 1.2 298 5.7
2004-05-06 07:38:10 51°13.564 2°56.11 299.1 1.1 296 7.6
2004-05-06 07:38:15 51°13.565 2°56.108 298.6 1.1 295 7.8
2004-05-06 07:38:20 51°13.565 2°56.106 298.1 1.1 293 5.6
2004-05-06 07:38:25 51°13.566 2°56.103 297.5 1.1 296 7.7
2004-05-06 07:38:30 51°13.567 2°56.101 297 1.1 293 7.8
2004-05-06 07:38:35 51°13.568 2°56.099 296.6 1.1 294 7.2
2004-05-06 07:38:40 51°13.568 2°56.097 296.4 1.1 292 7.7
2004-05-06 07:38:45 51°13.569 2°56.095 296.1 1.1 295 7.3
2004-05-06 07:38:50 51°13.569 2°56.092 296 1.2 293 7.6
2004-05-06 07:38:55 51°13.57 2°56.089 296 1.5 295 7.2
2004-05-06 07:39:00 51°13.571 2°56.086 296.3 1.5 295 7.3
2004-05-06 07:39:04 51°13.572 2°56.083 297.1 1.9 296 7.2
2004-05-06 07:39:10 51°13.574 2°56.078 298.1 2 297 7.9
2004-05-06 07:39:15 51°13.575 2°56.074 299.4 2.3 298 7.2
2004-05-06 07:39:20 51°13.577 2°56.069 300.8 2.5 299 7.3
2004-05-06 07:39:26 51°13.579 2°56.062 302.4 2.7 299 7.2
2004-05-06 07:39:30 51°13.581 2°56.057 304.1 3.2 301 7.3
2004-05-06 07:39:35 51°13.584 2°56.051 306 3.5 301 7.8
2004-05-06 07:39:40 51°13.587 2°56.043 307.9 3.8 304 7.6
2004-05-06 07:39:46 51°13.591 2°56.034 309 4 303 7.3
2004-05-06 07:39:50 51°13.594 2°56.028 309.4 4.3 303 7.6
2004-05-06 07:39:55 51°13.597 2°56.019 309.4 4.7 303 7.3
2004-05-06 07:40:00 51°13.601 2°56.01 309.4 4.9 304 7.4
2004-05-06 07:40:04 51°13.604 2°56.002 309.5 5.2 304 7.6
2004-05-06 07:40:08 51°13.608 2°55.995 309.9 5.5 304 8.1
2004-05-06 07:40:15 51°13.614 2°55.98 310.3 5.6 304 8.2
2004-05-06 07:40:19 51°13.617 2°55.972 310.6 5.8 305 8.4
2004-05-06 07:40:25 51°13.623 2°55.959 310.5 5.9 304 8
2004-05-06 07:40:30 51°13.628 2°55.948 310.5 6 304 7.8
2004-05-06 07:40:35 51°13.633 2°55.937 310.6 6.2 305 8
2004-05-06 07:40:40 51°13.638 2°55.925 310.7 6.3 305 8
2004-05-06 07:40:45 51°13.643 2°55.914 310.7 6.4 304 7.7
2004-05-06 07:40:50 51°13.648 2°55.902 310.9 6.5 305 7.5
2004-05-06 07:40:55 51°13.654 2°55.89 311.2 6.6 305 7.4
2004-05-06 07:41:00 51°13.659 2°55.879 311.3 6.6 306 7.3
2004-05-06 07:41:05 51°13.665 2°55.867 311.3 6.7 306 7.3
2004-05-06 07:41:10 51°13.67 2°55.855 311.3 6.8 306 7.3
2004-05-06 07:41:15 51°13.676 2°55.843 312 6.8 307 7.4
2004-05-06 07:41:20 51°13.682 2°55.831 312.8 6.8 308 7.6
2004-05-06 07:41:26 51°13.689 2°55.817 314.7 6.8 309 8
2004-05-06 07:41:30 51°13.694 2°55.808 316.3 6.9 312 9.5
2004-05-06 07:41:35 51°13.701 2°55.797 317.7 7 313 10.1
2004-05-06 07:41:40 51°13.707 2°55.786 318.9 7 313 10.7
2004-05-06 07:41:44 51°13.713 2°55.777 320.4 7.1 315 10.5
2004-05-06 07:41:50 51°13.722 2°55.764 321.6 7.2 316 9.8
2004-05-06 07:41:56 51°13.731 2°55.751 322.4 7.2 317 8.7
2004-05-06 07:42:00 51°13.737 2°55.743 323.2 7.2 318 7.7
2004-05-06 07:42:05 51°13.744 2°55.732 324 7.2 318 5.5
2004-05-06 07:42:10 51°13.752 2°55.722 324.9 7.2 320 7.4
2004-05-06 07:42:15 51°13.76 2°55.712 326.3 7.2 322 7.6
2004-05-06 07:42:20 51°13.768 2°55.702 328.3 7.3 324 7.6
2004-05-06 07:42:25 51°13.776 2°55.693 329.8 7.3 324 7.6
2004-05-06 07:42:30 51°13.785 2°55.684 330.4 7.4 325 7.3
2004-05-06 07:42:35 51°13.793 2°55.675 331.8 7.4 327 7.4
2004-05-06 07:42:40 51°13.802 2°55.666 333.6 7.4 328 8
2004-05-06 07:42:45 51°13.811 2°55.658 335.7 7.4 329 8.1
2004-05-06 07:42:50 51°13.82 2°55.65 337.5 7.5 331 7.9
2004-05-06 07:42:55 51°13.829 2°55.643 339 7.6 333 8.1
2004-05-06 07:43:00 51°13.839 2°55.636 340.6 7.7 335 7.9
2004-05-06 07:43:04 51°13.847 2°55.63 341.1 7.9 335 7.6
2004-05-06 07:43:10 51°13.859 2°55.621 341.1 7.9 335 5.6
2004-05-06 07:43:15 51°13.869 2°55.614 341.1 8 335 7.7
2004-05-06 07:43:20 51°13.88 2°55.606 341.1 8 335 7.7
2004-05-06 07:43:24 51°13.888 2°55.6 341.1 8.1 335 7.8
2004-05-06 07:43:31 51°13.902 2°55.589 341.2 8.2 335 7.8
2004-05-06 07:43:35 51°13.911 2°55.583 341.5 8.2 335 7.4
2004-05-06 07:43:40 51°13.921 2°55.576 342.1 8.3 336 7.7
2004-05-06 07:43:45 51°13.932 2°55.569 342.7 8.3 336 7.9
2004-05-06 07:43:50 51°13.942 2°55.561 343 8.4 337 8.4
2004-05-06 07:43:55 51°13.953 2°55.554 343 8.5 336 8.7
2004-05-06 07:44:00 51°13.964 2°55.546 342.5 8.5 336 8.7
2004-05-06 07:44:06 51°13.977 2°55.537 342.3 8.6 336 9
2004-05-06 07:44:10 51°13.985 2°55.53 342.3 8.7 336 9.4
2004-05-06 07:44:15 51°13.996 2°55.522 342.2 8.7 336 9.4
2004-05-06 07:44:20 51°14.007 2°55.514 341.8 8.7 336 8.9
2004-05-06 07:44:25 51°14.018 2°55.506 341.2 8.8 335 8.8
2004-05-06 07:44:30 51°14.03 2°55.498 341.1 8.9 337 9
2004-05-06 07:44:35 51°14.041 2°55.491 341.8 8.9 336 9.2
2004-05-06 07:44:40 51°14.052 2°55.482 341.7 9 336 9
2004-05-06 07:44:46 51°14.066 2°55.472 341.2 9 335 9
2004-05-06 07:44:50 51°14.075 2°55.466 341.5 9.1 336 9.1
2004-05-06 07:44:56 51°14.089 2°55.456 341.8 9.1 336 9.6
2004-05-06 07:45:00 51°14.098 2°55.449 341.9 9.1 335 9.7
2004-05-06 07:45:05 51°14.11 2°55.44 341.6 9.2 335 9.4
2004-05-06 07:45:10 51°14.122 2°55.431 340.3 9.6 334 9
2004-05-06 07:45:16 51°14.136 2°55.42 339.6 9.7 334 9
2004-05-06 07:45:20 51°14.146 2°55.412 339.5 9.8 333 9
2004-05-06 07:45:26 51°14.161 2°55.399 338.8 9.8 333 9
2004-05-06 07:45:30 51°14.171 2°55.39 337.8 10.1 331 9.1
2004-05-06 07:45:35 51°14.183 2°55.378 336 10.4 329 9.1
2004-05-06 07:45:40 51°14.195 2°55.366 334.3 10.5 327 9.1
2004-05-06 07:45:46 51°14.21 2°55.35 332.9 10.5 326 9.2
2004-05-06 07:45:50 51°14.219 2°55.338 331.3 10.7 323 9.1
2004-05-06 07:45:56 51°14.233 2°55.321 329.7 10.7 322 9.2
2004-05-06 07:46:00 51°14.242 2°55.309 327.5 10.8 321 9.2
2004-05-06 07:46:05 51°14.253 2°55.293 325.5 10.8 319 9.1
2004-05-06 07:46:10 51°14.264 2°55.276 323.3 10.9 316 9.5
2004-05-06 07:46:15 51°14.274 2°55.258 321 10.9 314 9
2004-05-06 07:46:20 51°14.285 2°55.241 319.5 10.9 313 9.4
2004-05-06 07:46:24 51°14.293 2°55.226 318.3 11 311 9
2004-05-06 07:46:30 51°14.305 2°55.204 317.1 11 309 9.1
2004-05-06 07:46:36 51°14.316 2°55.181 315.1 11 308 8.9
2004-05-06 07:46:40 51°14.323 2°55.165 313.1 11.1 306 8.6
2004-05-06 07:46:44 51°14.33 2°55.149 311.8 11.1 305 8.9
2004-05-06 07:46:50 51°14.341 2°55.124 310.8 11.1 305 8.7
2004-05-06 07:46:55 51°14.35 2°55.104 310.9 11.2 306 8.6
2004-05-06 07:47:00 51°14.359 2°55.084 311.6 11.3 306 8.6
2004-05-06 07:47:05 51°14.368 2°55.064 311.7 11.3 305 9
2004-05-06 07:47:10 51°14.377 2°55.043 311.4 11.4 305 9.2
2004-05-06 07:47:15 51°14.385 2°55.021 309.3 11.6 301 9
2004-05-06 07:47:19 51°14.392 2°55.003 307 11.8 299 8.7
2004-05-06 07:47:24 51°14.399 2°54.979 304.6 11.9 296 9
2004-05-06 07:47:30 51°14.407 2°54.95 302.5 12 292 8.9
2004-05-06 07:47:35 51°14.412 2°54.925 299.2 12.1 290 8.9
2004-05-06 07:47:40 51°14.418 2°54.899 296.8 12.1 288 8.8
2004-05-06 07:47:44 51°14.421 2°54.878 294.1 12.2 285 8.7
2004-05-06 07:47:50 51°14.425 2°54.846 291.6 12.3 280 8.8
2004-05-06 07:47:56 51°14.428 2°54.814 288.5 12.4 278 8.8
2004-05-06 07:48:00 51°14.429 2°54.792 285.7 12.5 276 8.7
2004-05-06 07:48:05 51°14.43 2°54.764 282.3 12.5 274 8.7
2004-05-06 07:48:10 51°14.43 2°54.736 280.3 12.6 271 8.9
2004-05-06 07:48:15 51°14.43 2°54.708 277.5 12.6 269 8.8
2004-05-06 07:48:20 51°14.43 2°54.68 276.7 12.7 270 9
2004-05-06 07:48:25 51°14.43 2°54.652 277.4 12.7 271 8.9
2004-05-06 07:48:30 51°14.431 2°54.624 278.5 12.8 272 8.6
2004-05-06 07:48:35 51°14.431 2°54.595 278.7 13 271 8.6
2004-05-06 07:48:40 51°14.432 2°54.566 278.6 13.2 271 8.6
2004-05-06 07:48:46 51°14.432 2°54.531 278.7 13.3 271 8.6
2004-05-06 07:48:50 51°14.433 2°54.507 279.2 13.5 272 8.4
2004-05-06 07:48:55 51°14.433 2°54.477 279.5 13.6 271 8.4
2004-05-06 07:48:59 51°14.432 2°54.452 278 13.7 269 8.5
2004-05-06 07:49:04 51°14.431 2°54.422 275.2 13.8 265 8.1
2004-05-06 07:49:10 51°14.427 2°54.386 271.8 13.8 260 8
2004-05-06 07:49:15 51°14.423 2°54.356 267.8 13.8 257 7.6
2004-05-06 07:49:19 51°14.419 2°54.333 263.4 13.8 253 7.6
2004-05-06 07:49:26 51°14.409 2°54.293 258 13.7 248 7.5
2004-05-06 07:49:30 51°14.403 2°54.271 254.7 13.8 247 7.5
2004-05-06 07:49:35 51°14.394 2°54.243 251.6 13.8 244 7.5
2004-05-06 07:49:40 51°14.386 2°54.216 250 13.8 244 7.4
2004-05-06 07:49:45 51°14.377 2°54.189 248.9 13.9 242 7.4
2004-05-06 07:49:50 51°14.368 2°54.162 247.8 13.9 241 7.4
2004-05-06 07:49:55 51°14.358 2°54.135 246.5 13.9 241 5.5
2004-05-06 07:50:00 51°14.349 2°54.108 245.6 13.9 240 5.5
2004-05-06 07:50:05 51°14.339 2°54.081 245.3 14 240 7.4
2004-05-06 07:50:10 51°14.329 2°54.055 245.1 14 239 7.4
2004-05-06 07:50:15 51°14.319 2°54.029 244 14 238 7.3
2004-05-06 07:50:20 51°14.308 2°54.003 242.7 14 237 7.3
2004-05-06 07:50:26 51°14.295 2°53.972 241.7 14.1 236 7.4
2004-05-06 07:50:30 51°14.286 2°53.951 240.8 14.1 236 7.3
2004-05-06 07:50:35 51°14.275 2°53.926 240 14.1 235 7.3
2004-05-06 07:50:40 51°14.264 2°53.9 239.6 14.1 235 7.3
2004-05-06 07:50:45 51°14.253 2°53.874 240.4 14.1 236 7.3
2004-05-06 07:50:50 51°14.243 2°53.848 241.6 14.1 239 7.3
2004-05-06 07:50:55 51°14.234 2°53.82 243.8 14.2 241 7.3
2004-05-06 07:51:00 51°14.224 2°53.793 246.1 14.2 242 7.3
2004-05-06 07:51:06 51°14.215 2°53.759 248.4 14.2 242 7.4
2004-05-06 07:51:10 51°14.209 2°53.736 251.6 14.1 248 7.4
2004-05-06 07:51:16 51°14.201 2°53.7 254.3 14.1 251 5.5
2004-05-06 07:51:20 51°14.196 2°53.676 257.5 14.1 252 5.5
2004-05-06 07:51:25 51°14.191 2°53.646 259.7 14.1 253 7.5
2004-05-06 07:51:30 51°14.185 2°53.617 260.6 14.1 254 -999
2004-05-06 07:51:35 51°14.18 2°53.587 261.1 14.1 253 7.6
2004-05-06 07:51:40 51°14.174 2°53.557 261.1 14.1 253 7.6
2004-05-06 07:51:46 51°14.166 2°53.522 258.9 14.2 250 7.6
2004-05-06 07:51:50 51°14.16 2°53.499 256.5 14.3 246 7.6
2004-05-06 07:51:55 51°14.15 2°53.47 252.2 14.3 243 7.6
2004-05-06 07:52:00 51°14.14 2°53.443 248.9 14.4 240 7.7
2004-05-06 07:52:04 51°14.132 2°53.421 245.3 14.4 239 7.7
2004-05-06 07:52:10 51°14.119 2°53.39 243.3 14.4 237 7.7
2004-05-06 07:52:15 51°14.108 2°53.363 241.5 14.4 236 7.8
2004-05-06 07:52:20 51°14.096 2°53.337 240.4 14.3 235 7.8
2004-05-06 07:52:26 51°14.082 2°53.306 240 14.4 235 5.8
2004-05-06 07:52:30 51°14.074 2°53.285 240.2 14.5 236 7.8
2004-05-06 07:52:35 51°14.063 2°53.258 240.9 14.6 238 7.9
2004-05-06 07:52:40 51°14.052 2°53.23 242.6 14.6 238 7.9
2004-05-06 07:52:44 51°14.044 2°53.208 243.2 14.6 238 7.9
2004-05-06 07:52:50 51°14.031 2°53.175 244.2 14.6 239 8
2004-05-06 07:52:55 51°14.021 2°53.147 244.6 14.6 239 8
2004-05-06 07:53:00 51°14.011 2°53.119 244.8 14.6 239 8
2004-05-06 07:53:05 51°14 2°53.092 244.3 14.6 238 8.1
2004-05-06 07:53:11 51°13.987 2°53.059 243.7 14.6 238 8.1
2004-05-06 07:53:15 51°13.979 2°53.037 243.6 14.7 239 8.1
2004-05-06 07:53:20 51°13.968 2°53.009 243.8 14.7 238 8.1
2004-05-06 07:53:26 51°13.955 2°52.976 243.4 14.7 238 8.2
2004-05-06 07:53:30 51°13.946 2°52.954 243 14.7 237 8.2
2004-05-06 07:53:35 51°13.935 2°52.927 242.4 14.7 237 8.2
2004-05-06 07:53:39 51°13.926 2°52.905 242.3 14.7 237 8.2
2004-05-06 07:53:45 51°13.913 2°52.872 242.1 14.7 237 8.3
2004-05-06 07:53:50 51°13.902 2°52.845 242 14.8 237 8.3
2004-05-06 07:53:55 51°13.891 2°52.817 243.2 14.8 238 8.3
2004-05-06 07:54:00 51°13.881 2°52.789 243.8 14.8 239 8.3
2004-05-06 07:54:05 51°13.871 2°52.76 244.8 14.8 241 8.3
2004-05-06 07:54:10 51°13.861 2°52.731 246.6 14.8 243 8.3
2004-05-06 07:54:15 51°13.852 2°52.702 248 14.8 243 8.4
2004-05-06 07:54:20 51°13.843 2°52.673 249.2 14.8 244 8.4
2004-05-06 07:54:26 51°13.832 2°52.637 249.9 14.8 244 8.4
2004-05-06 07:54:30 51°13.825 2°52.614 250.3 14.8 244 8.4
2004-05-06 07:54:35 51°13.816 2°52.585 250 14.8 244 8.4
2004-05-06 07:54:40 51°13.806 2°52.556 249.4 14.8 243 8.4
2004-05-06 07:54:44 51°13.798 2°52.533 247.7 14.9 241 8.4
2004-05-06 07:54:50 51°13.786 2°52.498 246.7 14.9 240 8.5
2004-05-06 07:54:55 51°13.776 2°52.47 245.4 14.9 239 8.5
2004-05-06 07:55:00 51°13.765 2°52.442 244.1 14.9 238 8.6
2004-05-06 07:55:05 51°13.754 2°52.414 243.2 14.9 238 8.6
2004-05-06 07:55:10 51°13.742 2°52.387 242.7 14.9 237 8.5
2004-05-06 07:55:16 51°13.729 2°52.353 242.4 14.9 238 8.5
2004-05-06 07:55:20 51°13.721 2°52.331 243 14.9 239 8.6
2004-05-06 07:55:26 51°13.709 2°52.296 244.5 14.9 240 8.6
2004-05-06 07:55:29 51°13.702 2°52.279 245.8 15 241 8.6
2004-05-06 07:55:35 51°13.691 2°52.244 246.7 14.9 242 8.8
2004-05-06 07:55:40 51°13.681 2°52.215 247.1 14.9 242 8.6
2004-05-06 07:55:45 51°13.671 2°52.186 247.7 14.9 242 8.6
2004-05-06 07:55:50 51°13.662 2°52.156 247.9 14.9 242 8.6
2004-05-06 07:55:55 51°13.652 2°52.128 247.8 14.9 241 8.6
2004-05-06 07:56:00 51°13.641 2°52.099 247.1 14.9 241 8.6
2004-05-06 07:56:04 51°13.632 2°52.077 244.5 14.9 237 8.6
2004-05-06 07:56:10 51°13.619 2°52.044 242.9 14.9 236 8.6
2004-05-06 07:56:15 51°13.607 2°52.017 240.9 15 235 8.6
2004-05-06 07:56:19 51°13.597 2°51.995 239.6 14.9 234 8.7
2004-05-06 07:56:25 51°13.582 2°51.963 238.7 14.9 234 8.6
2004-05-06 07:56:30 51°13.57 2°51.937 238.2 14.9 233 8.7
2004-05-06 07:56:35 51°13.558 2°51.911 237.5 14.9 234 8.6
2004-05-06 07:56:40 51°13.545 2°51.884 238 14.9 234 8.6
2004-05-06 07:56:44 51°13.536 2°51.862 238.2 15 234 8.7
2004-05-06 07:56:50 51°13.521 2°51.83 238.7 15 235 8.6
2004-05-06 07:56:56 51°13.508 2°51.797 239.6 15 236 8.6
2004-05-06 07:57:00 51°13.499 2°51.775 240.9 14.9 237 8.6
2004-05-06 07:57:06 51°13.485 2°51.742 241.3 14.9 237 8.6
2004-05-06 07:57:10 51°13.476 2°51.719 242 15 238 8.6
2004-05-06 07:57:15 51°13.465 2°51.692 242.4 14.9 237 8.7
2004-05-06 07:57:20 51°13.454 2°51.664 242.3 14.9 237 8.7
2004-05-06 07:57:25 51°13.442 2°51.637 241.4 15 236 8.6
2004-05-06 07:57:30 51°13.43 2°51.609 240.2 15 234 8.5
2004-05-06 07:57:35 51°13.418 2°51.583 239.4 14.9 234 8.6
2004-05-06 07:57:40 51°13.406 2°51.556 238.4 14.9 233 8.6
2004-05-06 07:57:45 51°13.393 2°51.53 237.8 15 233 8.5
2004-05-06 07:57:50 51°13.381 2°51.503 237.8 15 234 8.6
2004-05-06 07:57:55 51°13.369 2°51.477 237.8 15 234 8.7
2004-05-06 07:58:00 51°13.357 2°51.45 238.7 15 234 8.6
2004-05-06 07:58:05 51°13.345 2°51.423 239.4 15 235 8.6
2004-05-06 07:58:10 51°13.334 2°51.395 240 15 236 8.7
2004-05-06 07:58:15 51°13.322 2°51.367 240.9 15 237 8.6
2004-05-06 07:58:20 51°13.311 2°51.339 241.7 15 238 8.6
2004-05-06 07:58:25 51°13.3 2°51.312 242.5 14.9 238 8.6
2004-05-06 07:58:30 51°13.289 2°51.284 243 15 238 8.6
2004-05-06 07:58:35 51°13.278 2°51.255 243.1 15 238 8.6
2004-05-06 07:58:40 51°13.267 2°51.228 242.4 14.9 237 8.6
2004-05-06 07:58:46 51°13.253 2°51.195 241.5 14.9 236 8.6
2004-05-06 07:58:50 51°13.243 2°51.173 240.5 14.9 235 8.6
2004-05-06 07:58:55 51°13.231 2°51.147 239.4 15 234 8.6
2004-05-06 07:59:00 51°13.219 2°51.12 238.8 15 234 8.6
2004-05-06 07:59:05 51°13.206 2°51.093 238.1 15 234 8.6
2004-05-06 07:59:11 51°13.192 2°51.061 237.8 15 234 8.6
2004-05-06 07:59:15 51°13.182 2°51.04 237.9 15 234 8.6
2004-05-06 07:59:20 51°13.17 2°51.013 238 15 234 8.7
2004-05-06 07:59:25 51°13.158 2°50.986 238.6 15 235 8.6
2004-05-06 07:59:30 51°13.146 2°50.959 239.2 15 235 8.6
2004-05-06 07:59:35 51°13.135 2°50.931 240.6 15 237 8.6
2004-05-06 07:59:40 51°13.124 2°50.903 241.5 15 237 8.7
2004-05-06 07:59:46 51°13.11 2°50.869 242.2 15 238 8.7
2004-05-06 07:59:50 51°13.102 2°50.847 242.8 15 238 8.7
2004-05-06 07:59:55 51°13.091 2°50.819 243.1 15 238 8.6
2004-05-06 08:00:00 51°13.079 2°50.791 242.6 15 238 8.7
2004-05-06 08:00:04 51°13.07 2°50.769 242 15 236 8.6
2004-05-06 08:00:10 51°13.056 2°50.736 240.8 15 235 8.6
2004-05-06 08:00:16 51°13.042 2°50.703 240 15 235 8.6
2004-05-06 08:00:20 51°13.032 2°50.682 239.3 15 234 8.6
2004-05-06 08:00:26 51°13.017 2°50.649 238.7 15 234 8.6
2004-05-06 08:00:30 51°13.008 2°50.628 238.2 15 234 8.6
2004-05-06 08:00:35 51°12.996 2°50.601 238 15 234 8.6
2004-05-06 08:00:40 51°12.983 2°50.574 238 15 234 8.6
2004-05-06 08:00:46 51°12.969 2°50.542 237.8 15 234 8.6
2004-05-06 08:00:51 51°12.957 2°50.515 238.8 15 236 8.6
2004-05-06 08:00:55 51°12.948 2°50.493 239.8 15 236 8.6
2004-05-06 08:01:00 51°12.937 2°50.465 241 15 237 8.5
2004-05-06 08:01:05 51°12.926 2°50.437 241.8 15 237 8.6
2004-05-06 08:01:10 51°12.914 2°50.409 242.4 14.9 237 8.6
2004-05-06 08:01:15 51°12.903 2°50.381 241.8 14.9 238 8.6
2004-05-06 08:01:20 51°12.892 2°50.354 241.9 14.9 237 8.6
2004-05-06 08:01:25 51°12.881 2°50.327 241.5 14.9 237 8.6
2004-05-06 08:01:31 51°12.866 2°50.294 240.4 14.9 235 8.5
2004-05-06 08:01:35 51°12.857 2°50.273 239.3 14.9 235 8.6
2004-05-06 08:01:40 51°12.845 2°50.246 238.7 14.9 234 8.6
2004-05-06 08:01:45 51°12.833 2°50.22 238.1 14.9 234 8.6
2004-05-06 08:01:50 51°12.821 2°50.192 238.5 14.9 236 8.6
2004-05-06 08:01:55 51°12.81 2°50.165 240.2 14.9 237 8.6
2004-05-06 08:02:00 51°12.799 2°50.137 242.1 14.9 239 8.6
2004-05-06 08:02:05 51°12.789 2°50.108 244.1 14.9 240 8.6
2004-05-06 08:02:10 51°12.779 2°50.079 245.7 14.9 242 8.6
2004-05-06 08:02:15 51°12.77 2°50.05 246.6 14.9 242 8.6
2004-05-06 08:02:20 51°12.76 2°50.021 247.6 14.9 243 8.6
2004-05-06 08:02:26 51°12.749 2°49.986 248 14.8 243 8.6
2004-05-06 08:02:28 51°12.745 2°49.974 248.1 14.9 242 8.6
2004-05-06 08:02:35 51°12.731 2°49.934 247.3 14.9 241 8.7
2004-05-06 08:02:40 51°12.721 2°49.905 246.1 14.9 240 8.7
2004-05-06 08:02:45 51°12.71 2°49.877 244.8 14.9 239 8.7
2004-05-06 08:02:50 51°12.699 2°49.849 243.7 14.9 239 8.7
2004-05-06 08:02:55 51°12.688 2°49.821 243.4 15 239 8.7
2004-05-06 08:03:00 51°12.678 2°49.793 243.5 14.9 238 8.7
2004-05-06 08:03:05 51°12.667 2°49.765 243.1 14.9 238 8.6
2004-05-06 08:03:10 51°12.656 2°49.737 243.1 15 238 8.7
2004-05-06 08:03:15 51°12.645 2°49.709 243.1 14.9 238 8.7
2004-05-06 08:03:20 51°12.634 2°49.681 243.1 15 239 8.7
2004-05-06 08:03:25 51°12.624 2°49.652 243.8 14.9 240 8.7
2004-05-06 08:03:30 51°12.614 2°49.623 244.8 15 241 8.6
2004-05-06 08:03:35 51°12.604 2°49.595 245.6 15 242 8.7
2004-05-06 08:03:40 51°12.594 2°49.566 246.7 14.9 241 8.7
2004-05-06 08:03:45 51°12.584 2°49.537 246.7 14.9 241 8.7
2004-05-06 08:03:50 51°12.574 2°49.508 246.6 15 241 8.7
2004-05-06 08:03:56 51°12.562 2°49.474 246 15 240 8.7
2004-05-06 08:04:00 51°12.553 2°49.451 245.3 15 240 8.7
2004-05-06 08:04:05 51°12.543 2°49.423 244.5 15 239 8.7
2004-05-06 08:04:10 51°12.531 2°49.395 243.6 15 238 8.7
2004-05-06 08:04:15 51°12.52 2°49.366 243.1 15 238 8.7
2004-05-06 08:04:19 51°12.512 2°49.344 242.9 15 238 8.7
2004-05-06 08:04:26 51°12.496 2°49.304 242.8 15 238 8.7
2004-05-06 08:04:31 51°12.486 2°49.276 243.5 15 239 8.7
2004-05-06 08:04:35 51°12.477 2°49.253 244.1 15 240 8.7
2004-05-06 08:04:39 51°12.469 2°49.23 244.7 15 240 8.6
2004-05-06 08:04:45 51°12.457 2°49.195 245.5 15 241 8.6
2004-05-06 08:04:50 51°12.447 2°49.166 246.3 15 241 8.6
2004-05-06 08:04:55 51°12.437 2°49.137 246.4 15 241 8.6
2004-05-06 08:05:00 51°12.427 2°49.109 246.1 15 241 8.6
2004-05-06 08:05:04 51°12.418 2°49.086 245.5 15 240 8.6
2004-05-06 08:05:10 51°12.405 2°49.052 244.7 15 239 8.7
2004-05-06 08:05:15 51°12.395 2°49.023 243.7 15 239 8.6
2004-05-06 08:05:20 51°12.384 2°48.995 243.8 15 239 8.7
2004-05-06 08:05:26 51°12.372 2°48.96 244.6 15 240 8.6
2004-05-06 08:05:30 51°12.364 2°48.937 245.4 15 242 8.7
2004-05-06 08:05:35 51°12.354 2°48.908 247 15 243 8.7
2004-05-06 08:05:40 51°12.345 2°48.878 248.1 15 243 8.7
2004-05-06 08:05:45 51°12.336 2°48.848 248.9 15 244 8.7
2004-05-06 08:05:50 51°12.327 2°48.819 249.4 15 244 8.7
2004-05-06 08:05:55 51°12.318 2°48.789 249.6 15 244 8.8
2004-05-06 08:06:00 51°12.308 2°48.759 249.4 15 243 8.8
2004-05-06 08:06:05 51°12.299 2°48.73 248.2 15 242 8.8
2004-05-06 08:06:10 51°12.289 2°48.701 247.6 15 241 8.7
2004-05-06 08:06:15 51°12.278 2°48.672 246.3 15 240 8.7
2004-05-06 08:06:20 51°12.268 2°48.644 245.2 15 240 8.7
2004-05-06 08:06:25 51°12.257 2°48.615 244.7 15 240 8.8
2004-05-06 08:06:30 51°12.246 2°48.587 243.9 15 239 8.8
2004-05-06 08:06:35 51°12.236 2°48.558 243.7 15 240 8.8
2004-05-06 08:06:40 51°12.225 2°48.53 244.1 15 240 8.8
2004-05-06 08:06:45 51°12.215 2°48.501 244.9 15 241 8.8
2004-05-06 08:06:50 51°12.205 2°48.472 245.4 15 242 8.8
2004-05-06 08:06:55 51°12.195 2°48.443 246.6 15 242 8.9
2004-05-06 08:07:00 51°12.186 2°48.413 247.5 15 243 8.8
2004-05-06 08:07:05 51°12.177 2°48.384 248 15 243 8.8
2004-05-06 08:07:10 51°12.167 2°48.354 248.5 15 244 8.8
2004-05-06 08:07:15 51°12.159 2°48.324 249.9 15 246 8.8
2004-05-06 08:07:20 51°12.15 2°48.294 250.9 15 245 8.8
2004-05-06 08:07:26 51°12.14 2°48.257 251.6 15 246 8.9
2004-05-06 08:07:30 51°12.134 2°48.233 252 15 246 8.9
2004-05-06 08:07:35 51°12.125 2°48.202 252.1 15 246 8.9
2004-05-06 08:07:40 51°12.117 2°48.172 251.9 15 246 8.9
2004-05-06 08:07:45 51°12.108 2°48.142 251.1 15 245 9
2004-05-06 08:07:50 51°12.099 2°48.112 250.4 15 244 9
2004-05-06 08:07:56 51°12.087 2°48.076 249.3 15 244 9
2004-05-06 08:08:00 51°12.08 2°48.053 248.9 15 243 8.9
2004-05-06 08:08:06 51°12.069 2°48.017 248.4 15 243 8.9
2004-05-06 08:08:09 51°12.063 2°48 248.5 14 244 9
2004-05-06 08:08:15 51°12.054 2°47.968 249 13.6 244 9
2004-05-06 08:08:20 51°12.045 2°47.941 249.7 13.5 244 9
2004-05-06 08:08:26 51°12.037 2°47.91 250.2 13.2 246 9.1
2004-05-06 08:08:30 51°12.031 2°47.89 251.3 12.4 247 9.3
2004-05-06 08:08:36 51°12.026 2°47.862 253.8 11.4 251 9.4
2004-05-06 08:08:40 51°12.023 2°47.843 259.8 10.9 255 9.4
2004-05-06 08:08:45 51°12.021 2°47.821 267.1 10 263 9.5
2004-05-06 08:08:50 51°12.021 2°47.801 274.6 9.2 269 9.6
2004-05-06 08:08:55 51°12.022 2°47.781 281.1 8.8 274 9.6
2004-05-06 08:09:00 51°12.024 2°47.763 286.9 8.3 278 9.7
2004-05-06 08:09:06 51°12.027 2°47.743 293.1 7.8 284 9.8
2004-05-06 08:09:10 51°12.03 2°47.731 299.7 7.3 289 9.9
2004-05-06 08:09:15 51°12.034 2°47.718 305.7 6.8 295 9.9
2004-05-06 08:09:20 51°12.038 2°47.705 313.7 6.5 298 9.9
2004-05-06 08:09:25 51°12.043 2°47.694 319.3 6.2 302 10.1
2004-05-06 08:09:30 51°12.048 2°47.685 325.3 5.6 309 10.1
2004-05-06 08:09:35 51°12.053 2°47.676 331.4 5.3 314 10.2
2004-05-06 08:09:40 51°12.058 2°47.669 337.5 4.9 320 10.3
2004-05-06 08:09:44 51°12.062 2°47.664 343.6 4.7 324 10.3
2004-05-06 08:09:50 51°12.069 2°47.658 350.7 4.6 326 10.4
2004-05-06 08:09:55 51°12.074 2°47.654 356.6 4.1 334 10.5
2004-05-06 08:09:59 51°12.078 2°47.651 2.5 3.9 338 10.6
2004-05-06 08:10:06 51°12.085 2°47.648 7 3.6 344 10.6
2004-05-06 08:10:10 51°12.088 2°47.647 12.7 3.4 351 10.6
2004-05-06 08:10:16 51°12.093 2°47.647 18.4 3.2 357 10.6
2004-05-06 08:10:20 51°12.097 2°47.647 23.9 3 1 10.6
2004-05-06 08:10:25 51°12.101 2°47.648 29.3 2.8 9 10.6
2004-05-06 08:10:30 51°12.104 2°47.65 34.9 2.7 14 10.7
2004-05-06 08:10:35 51°12.108 2°47.652 40.4 2.6 23 10.7
2004-05-06 08:10:40 51°12.111 2°47.654 44.4 2.6 24 10.7
2004-05-06 08:10:45 51°12.114 2°47.657 46.8 2.6 30 10.7
2004-05-06 08:10:50 51°12.117 2°47.66 48.4 2.5 31 10.7
2004-05-06 08:10:55 51°12.12 2°47.663 49.3 2.4 32 10.8
2004-05-06 08:11:00 51°12.122 2°47.665 50.4 2.1 34 10.8
2004-05-06 08:11:03 51°12.123 2°47.666 51.5 1.8 31 10.8
2004-05-06 08:11:10 51°12.125 2°47.668 52.9 0.8 18 10.8
2004-05-06 08:11:15 51°12.126 2°47.668 55.5 0.4 337 10.8
2004-05-06 08:11:20 51°12.126 2°47.667 57.7 0.5 282 10.8
2004-05-06 08:11:25 51°12.126 2°47.666 59.9 0.4 273 10.8
2004-05-06 08:11:30 51°12.126 2°47.665 61.8 0.4 276 10.8
2004-05-06 08:11:35 51°12.126 2°47.664 63.4 0.4 265 10.8
2004-05-06 08:11:39 51°12.125 2°47.663 65 0.4 256 10.8
2004-05-06 08:11:44 51°12.125 2°47.663 66.6 0.4 256 10.8
2004-05-06 08:11:51 51°12.125 2°47.662 68.1 0.3 261 10.8
2004-05-06 08:11:55 51°12.125 2°47.661 69.3 0.4 238 10.8
2004-05-06 08:12:00 51°12.125 2°47.661 70.5 0.3 249 10.8
2004-05-06 08:12:06 51°12.125 2°47.66 71.8 0.4 234 10.8
2004-05-06 08:12:10 51°12.124 2°47.66 73 0.3 231 10.9
2004-05-06 08:12:15 51°12.124 2°47.659 74.2 0.4 224 10.8
2004-05-06 08:12:20 51°12.124 2°47.658 75 0.4 230 10.8
2004-05-06 08:12:26 51°12.123 2°47.658 76.1 0.4 228 10.8
2004-05-06 08:12:30 51°12.123 2°47.657 77 0.4 233 10.8
2004-05-06 08:12:35 51°12.123 2°47.657 77.8 0.4 222 10.8
2004-05-06 08:12:40 51°12.122 2°47.656 79 0.4 227 10.8
2004-05-06 08:12:45 51°12.121 2°47.655 79.7 0.5 220 10.8
2004-05-06 08:12:50 51°12.121 2°47.654 80.5 0.5 223 10.8
2004-05-06 08:12:55 51°12.12 2°47.654 81.5 0.5 220 10.7
2004-05-06 08:13:00 51°12.12 2°47.653 82.5 0.5 226 10.8
2004-05-06 08:13:06 51°12.119 2°47.652 83.5 0.6 217 10.7
2004-05-06 08:13:11 51°12.118 2°47.651 84.6 0.6 219 10.7
2004-05-06 08:13:15 51°12.117 2°47.651 85.7 0.6 217 10.7
2004-05-06 08:13:20 51°12.117 2°47.65 87 0.6 217 10.7
2004-05-06 08:13:25 51°12.116 2°47.649 87.8 0.7 216 10.8
2004-05-06 08:13:29 51°12.115 2°47.648 88.9 0.7 215 10.8
2004-05-06 08:13:35 51°12.114 2°47.647 90 0.7 215 10.8
2004-05-06 08:13:40 51°12.114 2°47.646 91.2 0.8 215 10.8
2004-05-06 08:13:44 51°12.113 2°47.645 92.4 0.8 215 10.8
2004-05-06 08:13:50 51°12.112 2°47.644 93.1 0.8 215 10.8
2004-05-06 08:13:55 51°12.111 2°47.643 94.2 0.8 213 10.8
2004-05-06 08:13:59 51°12.11 2°47.642 95.1 0.8 216 10.8
2004-05-06 08:14:04 51°12.109 2°47.641 96.5 0.9 216 10.8
2004-05-06 08:14:10 51°12.108 2°47.64 97.2 0.9 216 10.8
2004-05-06 08:14:15 51°12.107 2°47.639 98.1 0.9 217 10.8
2004-05-06 08:14:20 51°12.106 2°47.638 99.1 0.9 217 10.8
2004-05-06 08:14:25 51°12.105 2°47.637 100.1 0.9 216 10.8
2004-05-06 08:14:30 51°12.104 2°47.636 101 0.9 218 10.7
2004-05-06 08:14:35 51°12.103 2°47.634 102.1 0.9 218 10.7
2004-05-06 08:14:39 51°12.103 2°47.633 103 1 216 10.7
2004-05-06 08:14:46 51°12.101 2°47.632 103.9 1 216 10.7
2004-05-06 08:14:50 51°12.1 2°47.631 104.9 1 217 10.8
2004-05-06 08:14:56 51°12.099 2°47.629 105.9 1 218 10.7
2004-05-06 08:15:00 51°12.098 2°47.628 106.6 1 216 10.7
2004-05-06 08:15:06 51°12.097 2°47.626 107.4 1 217 10.7
2004-05-06 08:15:10 51°12.096 2°47.625 108.5 1 216 10.7
2004-05-06 08:15:15 51°12.096 2°47.624 109.4 1 220 10.8
2004-05-06 08:15:20 51°12.094 2°47.622 110.3 1.1 217 10.7
2004-05-06 08:15:25 51°12.093 2°47.621 111 1 220 10.7
2004-05-06 08:15:30 51°12.093 2°47.62 111.8 1 220 10.7
2004-05-06 08:15:35 51°12.091 2°47.619 112.6 1 222 10.7
2004-05-06 08:15:40 51°12.09 2°47.617 113.3 1 221 10.7
2004-05-06 08:15:46 51°12.089 2°47.615 113.9 1 221 10.7
2004-05-06 08:15:50 51°12.087 2°47.614 114.6 1.1 217 10.7
2004-05-06 08:15:55 51°12.086 2°47.613 115.4 1 205 10.7
2004-05-06 08:16:00 51°12.084 2°47.613 117.2 1.1 198 10.7
2004-05-06 08:16:05 51°12.083 2°47.612 119.6 1.2 188 10.7
2004-05-06 08:16:10 51°12.081 2°47.612 122.4 1.3 182 10.7
2004-05-06 08:16:15 51°12.079 2°47.612 125.7 1.5 180 10.7
2004-05-06 08:16:20 51°12.077 2°47.612 129.2 1.6 180 10.6
2004-05-06 08:16:23 51°12.076 2°47.612 132.9 1.7 177 10.6
2004-05-06 08:16:30 51°12.072 2°47.612 136.8 2.1 179 10.6
2004-05-06 08:16:36 51°12.067 2°47.613 140.8 2.2 177 10.6
2004-05-06 08:16:40 51°12.064 2°47.614 146.9 2.9 172 10.5
2004-05-06 08:16:45 51°12.059 2°47.615 151.6 3.4 175 10.5
2004-05-06 08:16:50 51°12.053 2°47.616 156.3 4.2 174 10.4
2004-05-06 08:16:55 51°12.047 2°47.616 159.6 4.6 175 10.4
2004-05-06 08:17:00 51°12.039 2°47.617 162.8 5 175 10.3
2004-05-06 08:17:06 51°12.03 2°47.618 164.7 5.3 176 10.2
2004-05-06 08:17:10 51°12.024 2°47.619 166.8 5.8 178 10.2
2004-05-06 08:17:15 51°12.015 2°47.619 168.3 6.3 180 10
2004-05-06 08:17:20 51°12.006 2°47.618 172.3 6.5 183 10.1
2004-05-06 08:17:25 51°11.996 2°47.616 176.3 6.9 186 10
2004-05-06 08:17:30 51°11.986 2°47.614 180.7 7.2 190 9.9
2004-05-06 08:17:35 51°11.976 2°47.61 185.1 7.4 194 9.8
2004-05-06 08:17:40 51°11.966 2°47.604 190.4 7.6 197 9.7
2004-05-06 08:17:46 51°11.954 2°47.596 196.5 7.8 202 9.6
2004-05-06 08:17:50 51°11.946 2°47.59 200.8 8 204 9.5
2004-05-06 08:17:55 51°11.936 2°47.582 203.8 8.3 208 9.5
2004-05-06 08:17:59 51°11.928 2°47.574 206.8 8.4 209 9.4
2004-05-06 08:18:05 51°11.916 2°47.562 209.3 8.5 211 9.3
2004-05-06 08:18:10 51°11.906 2°47.552 211.3 8.6 213 9.3
2004-05-06 08:18:15 51°11.895 2°47.542 212 8.8 213 9.3
2004-05-06 08:18:20 51°11.885 2°47.531 212.4 8.9 213 9.1
2004-05-06 08:18:24 51°11.877 2°47.523 212.5 8.9 213 9.1
2004-05-06 08:18:30 51°11.864 2°47.51 212.5 9 213 9
2004-05-06 08:18:35 51°11.854 2°47.499 212.4 9.1 213 9
2004-05-06 08:18:40 51°11.843 2°47.488 212 9.1 212 8.9
2004-05-06 08:18:44 51°11.834 2°47.479 211.4 9.1 212 8.7
2004-05-06 08:18:50 51°11.821 2°47.467 211 9.2 211 8.7
2004-05-06 08:18:55 51°11.81 2°47.456 210.5 9.2 211 8.6
2004-05-06 08:19:00 51°11.799 2°47.446 209.7 9.2 210 8.5
2004-05-06 08:19:06 51°11.786 2°47.434 209.5 9.2 211 8.5
2004-05-06 08:19:10 51°11.777 2°47.426 209.6 9.3 211 8.3
2004-05-06 08:19:15 51°11.766 2°47.415 210.4 9.2 211 8.2
2004-05-06 08:19:19 51°11.757 2°47.406 211.3 9.3 212 8.2
2004-05-06 08:19:24 51°11.747 2°47.395 212.4 9.3 213 8
2004-05-06 08:19:30 51°11.734 2°47.381 213.8 9.3 214 8
2004-05-06 08:19:35 51°11.723 2°47.369 214.7 9.3 215 8
2004-05-06 08:19:40 51°11.713 2°47.357 216.6 9.3 217 7.8
2004-05-06 08:19:44 51°11.705 2°47.347 217.9 9.3 217 7.8
2004-05-06 08:19:51 51°11.691 2°47.329 219.7 9.3 219 5.7
2004-05-06 08:19:56 51°11.681 2°47.316 221.1 9.2 219 7.7
2004-05-06 08:20:00 51°11.673 2°47.306 222.1 9.1 219 7.6
2004-05-06 08:20:06 51°11.661 2°47.294 220.5 8.7 216 7.5
2004-05-06 08:20:10 51°11.653 2°47.289 211.2 8 202 7.5
2004-05-06 08:20:15 51°11.643 2°47.284 202.1 7.7 197 7.4
2004-05-06 08:20:20 51°11.633 2°47.282 193.2 7.4 190 7.3
2004-05-06 08:20:26 51°11.621 2°47.282 184.5 7.1 184 7.3
2004-05-06 08:20:30 51°11.614 2°47.283 175.6 6.7 174 7.2
2004-05-06 08:20:35 51°11.605 2°47.287 167.2 6.3 165 7.2
2004-05-06 08:20:40 51°11.598 2°47.292 158.9 5.9 160 7.1
2004-05-06 08:20:45 51°11.591 2°47.297 151.6 5.5 155 7.1
2004-05-06 08:20:50 51°11.585 2°47.303 146.2 4.9 149 7.1
2004-05-06 08:20:55 51°11.58 2°47.308 141.4 4.6 146 7.1
2004-05-06 08:21:00 51°11.575 2°47.314 136.7 4.4 144 7.1
2004-05-06 08:21:06 51°11.57 2°47.321 133.2 4.1 141 7
2004-05-06 08:21:10 51°11.567 2°47.325 130.6 3.7 139 7
2004-05-06 08:21:15 51°11.564 2°47.33 128.5 3.2 138 7
2004-05-06 08:21:20 51°11.561 2°47.334 126.5 2.7 138 7
2004-05-06 08:21:23 51°11.56 2°47.336 121.5 2.2 137 7
2004-05-06 08:21:30 51°11.558 2°47.339 116.4 1.7 139 6.9
2004-05-06 08:21:36 51°11.556 2°47.339 113 0.9 160 7
2004-05-06 08:21:40 51°11.556 2°47.339 108.7 0.7 190 6.9
2004-05-06 08:21:46 51°11.555 2°47.337 106.4 0.9 235 7
2004-05-06 08:21:47 51°11.555 2°47.337 103.4 1 245 7
2004-05-06 08:21:55 51°11.555 2°47.334 101.5 1 246 6.9
2004-05-06 08:22:00 51°11.554 2°47.331 99.5 1 252 6.9
2004-05-06 08:22:05 51°11.554 2°47.33 97.5 1 251 6.9
2004-05-06 08:22:11 51°11.554 2°47.327 95.3 1 250 -999
2004-05-06 08:22:16 51°11.553 2°47.325 92.8 1 249 -999
2004-05-06 08:22:21 51°11.553 2°47.323 90.3 1 249 -999
2004-05-06 08:22:26 51°11.552 2°47.321 88.1 0.9 250 -999
2004-05-06 08:22:31 51°11.552 2°47.319 86.2 0.9 246 -999
2004-05-06 08:22:36 51°11.551 2°47.317 84.2 0.9 248 -999
2004-05-06 08:22:41 51°11.55 2°47.316 82.6 0.9 242 -999
2004-05-06 08:22:46 51°11.55 2°47.314 81 0.9 241 -999
2004-05-06 08:22:51 51°11.549 2°47.312 79.7 0.9 239 -999
2004-05-06 08:22:56 51°11.549 2°47.311 78.4 0.9 240 -999
2004-05-06 08:23:00 51°11.548 2°47.309 77.6 0.9 236 -999
2004-05-06 08:23:06 51°11.547 2°47.307 76.9 0.9 235 -999
2004-05-06 08:23:11 51°11.547 2°47.306 76.2 0.8 236 -999
2004-05-06 08:23:16 51°11.546 2°47.305 75.5 0.8 239 -999
2004-05-06 08:23:21 51°11.546 2°47.303 75.2 0.8 232 -999
2004-05-06 08:23:26 51°11.545 2°47.302 74.7 0.8 239 -999
2004-05-06 08:23:31 51°11.544 2°47.3 74.5 0.8 236 -999
2004-05-06 08:23:36 51°11.544 2°47.299 74.3 0.8 239 -999
2004-05-06 08:23:40 51°11.543 2°47.298 74.4 0.8 238 -999
2004-05-06 08:23:46 51°11.542 2°47.296 74.5 0.8 230 -999
2004-05-06 08:23:51 51°11.542 2°47.295 74.4 0.8 235 -999
2004-05-06 08:23:56 51°11.541 2°47.293 74.6 0.7 231 -999
2004-05-06 08:24:00 51°11.541 2°47.292 74.7 0.7 238 -999
2004-05-06 08:24:06 51°11.54 2°47.291 74.9 0.7 238 -999
2004-05-06 08:24:11 51°11.539 2°47.289 75.1 0.7 235 -999
2004-05-06 08:24:16 51°11.539 2°47.288 75.3 0.7 237 -999
2004-05-06 08:24:20 51°11.538 2°47.287 75.4 0.6 240 -999
2004-05-06 08:24:26 51°11.538 2°47.286 75.6 0.7 236 -999
2004-05-06 08:24:31 51°11.537 2°47.285 75.9 0.6 237 -999
2004-05-06 08:24:36 51°11.537 2°47.284 76.2 0.7 230 -999
2004-05-06 08:24:40 51°11.536 2°47.283 76.5 0.6 232 7
2004-05-06 08:24:45 51°11.535 2°47.282 76.9 0.6 233 7
2004-05-06 08:24:50 51°11.535 2°47.28 77 0.6 232 7
2004-05-06 08:24:55 51°11.534 2°47.279 77.3 0.6 234 6.9
2004-05-06 08:25:00 51°11.534 2°47.278 77.6 0.6 241 7
2004-05-06 08:25:05 51°11.533 2°47.277 77.9 0.6 236 6.9
2004-05-06 08:25:10 51°11.533 2°47.276 78.1 0.5 239 7
2004-05-06 08:25:15 51°11.532 2°47.275 78.5 0.5 246 6.9
2004-05-06 08:25:20 51°11.532 2°47.274 78.9 0.6 233 7
2004-05-06 08:25:25 51°11.531 2°47.273 79.2 0.6 234 7
2004-05-06 08:25:30 51°11.531 2°47.272 79.7 0.5 230 7
2004-05-06 08:25:35 51°11.53 2°47.272 79.8 0.5 228 6.9
2004-05-06 08:25:40 51°11.53 2°47.271 79.9 0.4 225 6.9
2004-05-06 08:25:46 51°11.529 2°47.27 80 0.4 234 7
2004-05-06 08:25:50 51°11.529 2°47.27 79.8 0.3 225 6.9
2004-05-06 08:25:55 51°11.529 2°47.27 79.8 0.3 210 7
2004-05-06 08:26:00 51°11.529 2°47.269 79.5 0.3 216 6.9
2004-05-06 08:26:04 51°11.528 2°47.269 79.2 0.3 200 7
2004-05-06 08:26:10 51°11.528 2°47.269 78.7 0.2 197 6.9
2004-05-06 08:26:15 51°11.527 2°47.269 78.1 0.2 194 7
2004-05-06 08:26:20 51°11.527 2°47.269 77.6 0.2 181 6.9
2004-05-06 08:26:25 51°11.526 2°47.269 76.8 0.1 158 6.9
2004-05-06 08:26:30 51°11.526 2°47.269 76.1 0.1 148 7
2004-05-06 08:26:35 51°11.526 2°47.269 75.2 0.1 103 6.9
2004-05-06 08:26:40 51°11.526 2°47.27 74.1 0.1 68 6.9
2004-05-06 08:26:45 51°11.526 2°47.27 73.3 0.2 74 7
2004-05-06 08:26:50 51°11.526 2°47.27 72.1 0.2 90 6.9
2004-05-06 08:26:56 51°11.526 2°47.271 71.3 0.2 78 7
2004-05-06 08:27:00 51°11.526 2°47.271 70.3 0.2 70 7
2004-05-06 08:27:05 51°11.526 2°47.272 68.8 0.3 64 7
2004-05-06 08:27:10 51°11.526 2°47.273 67.6 0.3 59 7
2004-05-06 08:27:15 51°11.526 2°47.273 66.3 0.3 77 7
2004-05-06 08:27:20 51°11.526 2°47.274 65.1 0.3 69 6.9
2004-05-06 08:27:25 51°11.526 2°47.274 63.7 0.4 55 7
2004-05-06 08:27:30 51°11.526 2°47.275 62.1 0.4 48 7
2004-05-06 08:27:35 51°11.526 2°47.276 60.4 0.4 58 7
2004-05-06 08:27:40 51°11.526 2°47.276 59 0.4 50 7
2004-05-06 08:27:45 51°11.527 2°47.277 57.4 0.4 45 7
2004-05-06 08:27:50 51°11.527 2°47.277 55.9 0.5 33 7
2004-05-06 08:27:55 51°11.528 2°47.278 54.3 0.5 38 7
2004-05-06 08:28:00 51°11.528 2°47.279 52.9 0.5 37 7
2004-05-06 08:28:05 51°11.529 2°47.28 51.9 0.5 33 7
2004-05-06 08:28:10 51°11.529 2°47.28 51.2 0.6 26 7
2004-05-06 08:28:15 51°11.53 2°47.281 50.1 0.6 33 7
2004-05-06 08:28:20 51°11.531 2°47.282 49.3 0.6 30 7
2004-05-06 08:28:25 51°11.532 2°47.283 48.7 0.6 37 7
2004-05-06 08:28:30 51°11.533 2°47.283 48.2 0.7 22 7
2004-05-06 08:28:35 51°11.534 2°47.284 47.8 0.8 35 7
2004-05-06 08:28:40 51°11.535 2°47.285 47.5 1 31 7
2004-05-06 08:28:46 51°11.536 2°47.288 47.1 1.1 34 7
2004-05-06 08:28:50 51°11.538 2°47.289 47.1 1.6 34 7
2004-05-06 08:28:55 51°11.54 2°47.292 46.8 1.9 39 7
2004-05-06 08:29:00 51°11.542 2°47.294 46.5 2.2 36 7
2004-05-06 08:29:04 51°11.544 2°47.297 46.2 2.4 38 7
2004-05-06 08:29:10 51°11.548 2°47.302 45.9 2.9 37 7
2004-05-06 08:29:15 51°11.551 2°47.306 45.6 3.2 36 7
2004-05-06 08:29:20 51°11.555 2°47.311 45 3.4 37 7
2004-05-06 08:29:26 51°11.56 2°47.316 44.5 3.6 37 7
2004-05-06 08:29:28 51°11.562 2°47.319 44.4 4 36 7.1
2004-05-06 08:29:35 51°11.568 2°47.326 44.4 4.2 37 7.1
2004-05-06 08:29:40 51°11.573 2°47.332 44.9 4.3 38 7.1
2004-05-06 08:29:46 51°11.579 2°47.34 45.3 4.5 39 7.1
2004-05-06 08:29:50 51°11.583 2°47.345 45.5 4.8 37 7.1
2004-05-06 08:29:55 51°11.589 2°47.351 44.3 4.9 37 7.1
2004-05-06 08:30:00 51°11.594 2°47.358 43.6 5 35 7.1
2004-05-06 08:30:06 51°11.601 2°47.365 42.8 5 35 7.2
2004-05-06 08:30:08 51°11.604 2°47.368 42.1 5 34 7.2
2004-05-06 08:30:15 51°11.612 2°47.376 41.5 4.9 33 7.2
2004-05-06 08:30:20 51°11.617 2°47.382 41.2 4.8 33 7.2
2004-05-06 08:30:25 51°11.623 2°47.388 41.1 4.8 34 7.3
2004-05-06 08:30:30 51°11.628 2°47.394 41.3 4.6 35 5.5
2004-05-06 08:30:36 51°11.634 2°47.401 42.1 4.6 35 5.5
2004-05-06 08:30:40 51°11.638 2°47.406 43 4.5 36 7.4
2004-05-06 08:30:44 51°11.642 2°47.41 44.1 4.4 37 7.4
2004-05-06 08:30:50 51°11.648 2°47.418 45.4 4.4 38 7.4
2004-05-06 08:30:56 51°11.653 2°47.425 46.7 4.3 40 7.4
2004-05-06 08:31:00 51°11.656 2°47.43 47.9 4.2 42 5.6
2004-05-06 08:31:06 51°11.661 2°47.438 49.1 4.2 43 7.5
2004-05-06 08:31:10 51°11.665 2°47.443 50.3 4.1 44 7.5
2004-05-06 08:31:15 51°11.668 2°47.449 51.4 4.1 46 7.5
2004-05-06 08:31:20 51°11.672 2°47.456 52.5 4 47 7.5
2004-05-06 08:31:24 51°11.675 2°47.461 53.2 4 48 7.6
2004-05-06 08:31:29 51°11.679 2°47.468 54.3 3.9 50 7.5
2004-05-06 08:31:36 51°11.684 2°47.477 54.7 3.9 49 7.5
2004-05-06 08:31:39 51°11.686 2°47.481 55.1 3.9 51 5.6
2004-05-06 08:31:44 51°11.689 2°47.488 55.4 3.9 50 7.7
2004-05-06 08:31:50 51°11.693 2°47.496 55.5 3.9 51 7.6
2004-05-06 08:31:55 51°11.697 2°47.502 55.6 3.9 51 7.6
2004-05-06 08:31:59 51°11.699 2°47.508 55.7 3.8 51 7.6
2004-05-06 08:32:04 51°11.703 2°47.514 55.9 3.7 51 7.7
2004-05-06 08:32:10 51°11.706 2°47.521 56.1 3.6 50 7.7
2004-05-06 08:32:15 51°11.709 2°47.528 56.1 3.6 52 5.7
2004-05-06 08:32:20 51°11.712 2°47.533 56.5 3.5 50 7.7
2004-05-06 08:32:25 51°11.715 2°47.539 56.7 3.4 52 7.8
2004-05-06 08:32:30 51°11.718 2°47.545 57 3.2 52 7.7
2004-05-06 08:32:35 51°11.721 2°47.55 57 3.2 51 7.7
2004-05-06 08:32:40 51°11.723 2°47.555 57 3.1 51 7.8
2004-05-06 08:32:45 51°11.726 2°47.561 56.8 3 51 7.8
2004-05-06 08:32:51 51°11.729 2°47.567 56.5 3 49 7.8
2004-05-06 08:32:55 51°11.731 2°47.57 55.9 2.9 50 7.8
2004-05-06 08:33:00 51°11.734 2°47.575 55.5 2.9 49 7.8
2004-05-06 08:33:03 51°11.735 2°47.578 54.9 2.8 49 7.8
2004-05-06 08:33:08 51°11.738 2°47.583 54.6 2.7 48 7.8
2004-05-06 08:33:15 51°11.742 2°47.589 54.4 2.7 49 7.8
2004-05-06 08:33:20 51°11.744 2°47.593 54.5 2.7 50 7.9
2004-05-06 08:33:24 51°11.746 2°47.597 54.8 2.6 48 7.9
2004-05-06 08:33:30 51°11.749 2°47.602 55.3 2.6 49 7.9
2004-05-06 08:33:35 51°11.751 2°47.606 55.8 2.5 50 7.9
2004-05-06 08:33:40 51°11.753 2°47.61 56.5 2.5 51 7.9
2004-05-06 08:33:44 51°11.755 2°47.614 57.1 2.5 52 7.9
2004-05-06 08:33:50 51°11.757 2°47.619 57.6 2.4 52 7.9
2004-05-06 08:33:55 51°11.759 2°47.623 58.3 2.4 53 7.9
2004-05-06 08:34:00 51°11.761 2°47.628 59.2 2.4 55 7.9
2004-05-06 08:34:06 51°11.763 2°47.633 59.8 2.4 53 7.9
2004-05-06 08:34:10 51°11.764 2°47.636 60.7 2.3 57 7.9
2004-05-06 08:34:15 51°11.766 2°47.64 61.4 2.3 57 8
2004-05-06 08:34:20 51°11.768 2°47.645 62.2 2.3 60 7.9
2004-05-06 08:34:25 51°11.769 2°47.649 63.2 2.2 60 8
2004-05-06 08:34:31 51°11.771 2°47.654 63.7 2.2 59 8
2004-05-06 08:34:36 51°11.772 2°47.658 64.5 2.2 61 8
2004-05-06 08:34:39 51°11.773 2°47.661 65.3 2.2 65 8
2004-05-06 08:34:44 51°11.774 2°47.665 66.1 2.2 62 8
2004-05-06 08:34:51 51°11.776 2°47.671 66.7 2.2 62 8
2004-05-06 08:34:55 51°11.777 2°47.675 67.3 2.2 62 8
2004-05-06 08:35:00 51°11.778 2°47.679 67.3 2.2 67 8
2004-05-06 08:35:04 51°11.779 2°47.683 67.1 2.3 60 8
2004-05-06 08:35:11 51°11.781 2°47.689 66.8 2.2 65 8
2004-05-06 08:35:15 51°11.782 2°47.693 66.1 2.3 62 8
2004-05-06 08:35:20 51°11.783 2°47.697 65.6 2.3 64 8
2004-05-06 08:35:24 51°11.784 2°47.701 64.8 2.2 58 8.1
2004-05-06 08:35:30 51°11.786 2°47.706 64.1 2.2 60 8
2004-05-06 08:35:35 51°11.788 2°47.71 63.1 2.3 59 8
2004-05-06 08:35:40 51°11.79 2°47.715 62.3 2.3 60 8.1
2004-05-06 08:35:45 51°11.792 2°47.719 61.2 2.3 55 8.1
2004-05-06 08:35:50 51°11.793 2°47.723 60.2 2.2 54 8.1
2004-05-06 08:35:55 51°11.795 2°47.727 59.1 2.3 55 8.1
2004-05-06 08:36:00 51°11.797 2°47.731 58.1 2.2 54 8.1
2004-05-06 08:36:04 51°11.799 2°47.734 57.3 2.3 51 8.1
2004-05-06 08:36:10 51°11.801 2°47.739 56.6 2.3 49 8.1
2004-05-06 08:36:15 51°11.804 2°47.743 55.9 2.4 51 8.1
2004-05-06 08:36:20 51°11.806 2°47.747 55.1 2.4 47 8.1
2004-05-06 08:36:25 51°11.808 2°47.751 54.4 2.5 49 8.1
2004-05-06 08:36:30 51°11.811 2°47.755 53.7 2.5 46 8.2
2004-05-06 08:36:35 51°11.813 2°47.759 52.9 2.6 46 8.1
2004-05-06 08:36:40 51°11.816 2°47.763 52.1 2.6 45 8.2
2004-05-06 08:36:44 51°11.818 2°47.767 51.3 2.7 44 8.2
2004-05-06 08:36:50 51°11.822 2°47.772 50.6 2.7 42 8.2
2004-05-06 08:36:55 51°11.824 2°47.776 49.8 2.8 43 8.2
2004-05-06 08:37:00 51°11.827 2°47.78 49.2 2.8 40 8.2
2004-05-06 08:37:04 51°11.83 2°47.783 49 2.8 41 8.3
2004-05-06 08:37:10 51°11.833 2°47.788 48.8 2.8 41 8.3
2004-05-06 08:37:16 51°11.837 2°47.793 48.8 2.8 42 8.3
2004-05-06 08:37:20 51°11.839 2°47.796 48.9 2.9 40 8.3
2004-05-06 08:37:25 51°11.842 2°47.801 49.1 2.9 42 8.3
2004-05-06 08:37:31 51°11.846 2°47.806 49.2 2.9 42 8.4
2004-05-06 08:37:36 51°11.849 2°47.81 49.5 2.9 41 8.4
2004-05-06 08:37:40 51°11.851 2°47.813 50 2.9 42 8.4
2004-05-06 08:37:45 51°11.854 2°47.818 51 2.9 44 8.4
2004-05-06 08:37:49 51°11.857 2°47.822 51.7 2.9 46 8.5
2004-05-06 08:37:55 51°11.86 2°47.827 52.7 2.9 46 8.5
2004-05-06 08:38:00 51°11.863 2°47.832 53.7 2.9 47 8.5
2004-05-06 08:38:05 51°11.865 2°47.837 54.7 2.9 49 8.5
2004-05-06 08:38:10 51°11.868 2°47.842 55.6 2.9 51 8.5
2004-05-06 08:38:15 51°11.87 2°47.847 56.6 2.9 52 8.5
2004-05-06 08:38:20 51°11.873 2°47.852 58.2 2.9 53 8.5
2004-05-06 08:38:25 51°11.875 2°47.857 59.5 2.9 55 8.5
2004-05-06 08:38:30 51°11.877 2°47.862 60.5 2.9 58 8.5
2004-05-06 08:38:35 51°11.879 2°47.868 62.1 2.9 59 8.5
2004-05-06 08:38:40 51°11.881 2°47.874 63.2 2.9 60 8.5
2004-05-06 08:38:45 51°11.883 2°47.879 64.1 2.9 60 8.6
2004-05-06 08:38:50 51°11.885 2°47.885 64.8 2.8 63 8.5
2004-05-06 08:38:55 51°11.887 2°47.89 65.5 2.9 63 8.6
2004-05-06 08:39:00 51°11.888 2°47.896 66.2 2.8 64 8.6
2004-05-06 08:39:03 51°11.889 2°47.9 66.7 2.9 64 8.6
2004-05-06 08:39:10 51°11.892 2°47.908 67.3 2.9 65 8.6
2004-05-06 08:39:15 51°11.894 2°47.913 67.5 2.9 66 8.6
2004-05-06 08:39:19 51°11.895 2°47.918 67.5 2.9 65 8.5
2004-05-06 08:39:25 51°11.897 2°47.925 67.6 2.9 66 8.6
2004-05-06 08:39:30 51°11.899 2°47.931 67.5 2.9 66 8.6
2004-05-06 08:39:35 51°11.9 2°47.937 67.3 2.9 65 8.6
2004-05-06 08:39:40 51°11.902 2°47.943 67 2.9 65 8.6
2004-05-06 08:39:44 51°11.903 2°47.947 66.6 2.9 64 8.6
2004-05-06 08:39:50 51°11.905 2°47.954 66.3 2.9 65 8.6
2004-05-06 08:39:55 51°11.907 2°47.96 65.9 2.9 64 8.6
2004-05-06 08:40:00 51°11.909 2°47.965 65.4 2.9 63 8.6
2004-05-06 08:40:04 51°11.91 2°47.97 65 2.8 63 8.6
2004-05-06 08:40:10 51°11.913 2°47.976 64.5 2.9 62 8.6
2004-05-06 08:40:15 51°11.915 2°47.982 63.8 2.9 61 8.6
2004-05-06 08:40:20 51°11.917 2°47.988 63.4 2.9 60 8.6
2004-05-06 08:40:25 51°11.919 2°47.993 62.9 2.8 60 8.6
2004-05-06 08:40:30 51°11.921 2°47.998 62.2 2.8 59 8.6
2004-05-06 08:40:35 51°11.923 2°48.004 61.5 2.8 58 8.6
2004-05-06 08:40:40 51°11.925 2°48.009 60.9 2.8 56 8.6
2004-05-06 08:40:45 51°11.927 2°48.014 60 2.8 57 8.6
2004-05-06 08:40:50 51°11.929 2°48.019 59.3 2.8 56 8.6
2004-05-06 08:40:55 51°11.932 2°48.024 58.5 2.8 53 8.7
2004-05-06 08:41:00 51°11.934 2°48.029 57.7 2.8 53 8.7
2004-05-06 08:41:04 51°11.936 2°48.033 57 2.8 53 8.7
2004-05-06 08:41:10 51°11.939 2°48.039 56.2 2.8 50 8.7
2004-05-06 08:41:15 51°11.941 2°48.044 55.5 2.8 50 8.7
2004-05-06 08:41:20 51°11.944 2°48.048 55.1 2.8 49 8.7
2004-05-06 08:41:26 51°11.947 2°48.054 55.4 2.8 51 8.7
2004-05-06 08:41:30 51°11.949 2°48.058 55.6 2.8 49 8.7
2004-05-06 08:41:35 51°11.951 2°48.063 56 2.8 50 8.7
2004-05-06 08:41:40 51°11.954 2°48.067 56.4 2.8 50 8.7
2004-05-06 08:41:43 51°11.955 2°48.071 56.7 2.8 53 8.7
2004-05-06 08:41:50 51°11.959 2°48.077 57.2 2.8 55 8.8
2004-05-06 08:41:56 51°11.961 2°48.083 57.8 2.8 51 8.8
2004-05-06 08:42:00 51°11.963 2°48.087 58.2 2.8 55 8.8
2004-05-06 08:42:05 51°11.966 2°48.092 59 2.8 53 8.8
2004-05-06 08:42:10 51°11.968 2°48.098 59.5 2.8 56 8.8
2004-05-06 08:42:15 51°11.97 2°48.103 60.2 2.8 57 8.8
2004-05-06 08:42:20 51°11.972 2°48.108 60.7 2.8 57 8.8
2004-05-06 08:42:25 51°11.974 2°48.113 61.3 2.8 58 8.8
2004-05-06 08:42:30 51°11.976 2°48.119 61.9 2.8 59 8.8
2004-05-06 08:42:35 51°11.978 2°48.124 62.7 2.8 60 8.8
2004-05-06 08:42:40 51°11.98 2°48.129 63.5 2.8 60 8.8
2004-05-06 08:42:45 51°11.982 2°48.135 64.2 2.8 62 8.9
2004-05-06 08:42:50 51°11.984 2°48.14 64.8 2.8 64 8.9
2004-05-06 08:42:55 51°11.985 2°48.146 65.4 2.8 64 8.9
2004-05-06 08:43:00 51°11.987 2°48.152 66.1 2.8 65 8.9
2004-05-06 08:43:05 51°11.989 2°48.157 66.9 2.8 65 8.9
2004-05-06 08:43:10 51°11.99 2°48.163 67.6 2.8 67 8.9
2004-05-06 08:43:15 51°11.992 2°48.169 68.6 2.8 68 8.8
2004-05-06 08:43:19 51°11.993 2°48.174 69.5 2.8 69 8.8
2004-05-06 08:43:25 51°11.994 2°48.181 70.1 2.8 69 8.8
2004-05-06 08:43:30 51°11.996 2°48.186 70.4 2.8 69 8.8
2004-05-06 08:43:35 51°11.997 2°48.192 70.2 2.8 69 8.8
2004-05-06 08:43:40 51°11.998 2°48.198 69.3 2.8 68 8.8
2004-05-06 08:43:45 51°12 2°48.204 68.5 2.8 68 8.8
2004-05-06 08:43:50 51°12.001 2°48.209 67.4 2.8 64 8.8
2004-05-06 08:43:55 51°12.003 2°48.215 66 2.7 64 8.8
2004-05-06 08:44:00 51°12.005 2°48.22 64.5 2.7 61 8.8
2004-05-06 08:44:04 51°12.006 2°48.224 63 2.7 59 8.9
2004-05-06 08:44:10 51°12.009 2°48.23 61.2 2.7 58 8.9
2004-05-06 08:44:15 51°12.011 2°48.235 59.5 2.7 55 8.8
2004-05-06 08:44:19 51°12.012 2°48.239 58.2 2.7 53 8.8
2004-05-06 08:44:26 51°12.016 2°48.246 57.3 2.7 53 8.9
2004-05-06 08:44:30 51°12.018 2°48.249 56.9 2.7 51 8.9
2004-05-06 08:44:36 51°12.02 2°48.255 56.6 2.7 53 8.9
2004-05-06 08:44:40 51°12.022 2°48.259 56.7 2.7 52 8.9
2004-05-06 08:44:44 51°12.024 2°48.263 56.8 2.8 53 8.9
2004-05-06 08:44:50 51°12.027 2°48.269 57.1 2.8 53 8.9
2004-05-06 08:44:55 51°12.029 2°48.274 57.6 2.7 53 8.9
2004-05-06 08:45:00 51°12.031 2°48.279 58.1 2.8 54 8.9
2004-05-06 08:45:03 51°12.033 2°48.282 58.5 2.8 54 8.9
2004-05-06 08:45:10 51°12.036 2°48.289 59.1 2.8 55 8.9
2004-05-06 08:45:15 51°12.038 2°48.294 59.8 2.8 57 8.9
2004-05-06 08:45:20 51°12.04 2°48.299 60.2 2.8 56 8.9
2004-05-06 08:45:24 51°12.042 2°48.303 61 2.8 57 8.9
2004-05-06 08:45:30 51°12.044 2°48.309 61.6 2.8 59 8.9
2004-05-06 08:45:36 51°12.047 2°48.316 62.3 2.8 60 8.9
2004-05-06 08:45:40 51°12.048 2°48.32 63.3 2.8 61 9
2004-05-06 08:45:45 51°12.05 2°48.326 63.8 2.8 61 8.9
2004-05-06 08:45:50 51°12.052 2°48.331 64.7 2.8 63 8.9
2004-05-06 08:45:55 51°12.053 2°48.336 65.4 2.8 64 8.9
2004-05-06 08:46:00 51°12.055 2°48.342 66 2.8 64 9
2004-05-06 08:46:05 51°12.057 2°48.348 66.3 2.8 65 8.9
2004-05-06 08:46:10 51°12.058 2°48.353 66.1 2.8 63 8.9
2004-05-06 08:46:15 51°12.06 2°48.359 65.8 2.8 64 9
2004-05-06 08:46:20 51°12.062 2°48.364 64.6 2.8 61 8.9
2004-05-06 08:46:25 51°12.064 2°48.369 63.7 2.7 62 8.9
2004-05-06 08:46:30 51°12.066 2°48.374 62.4 2.7 59 9
2004-05-06 08:46:35 51°12.068 2°48.379 61.2 2.7 57 8.9
2004-05-06 08:46:40 51°12.07 2°48.384 60.2 2.7 56 8.9
2004-05-06 08:46:44 51°12.072 2°48.388 58.9 2.7 54 8.9
2004-05-06 08:46:50 51°12.074 2°48.394 57.6 2.8 51 9
2004-05-06 08:46:55 51°12.077 2°48.399 56.1 2.7 50 9
2004-05-06 08:47:00 51°12.079 2°48.403 54.8 2.7 48 9
2004-05-06 08:47:04 51°12.081 2°48.407 53.7 2.7 47 9
2004-05-06 08:47:10 51°12.084 2°48.411 52.2 2.7 44 9.1
2004-05-06 08:47:15 51°12.087 2°48.416 51.1 2.7 44 9
2004-05-06 08:47:20 51°12.09 2°48.42 50.6 2.7 42 9
2004-05-06 08:47:25 51°12.093 2°48.424 50.4 2.7 43 9.1
2004-05-06 08:47:30 51°12.095 2°48.428 50.2 2.8 43 9.1
2004-05-06 08:47:35 51°12.098 2°48.432 50.3 2.8 44 9.1
2004-05-06 08:47:40 51°12.101 2°48.436 50.7 2.8 42 9.1
2004-05-06 08:47:46 51°12.104 2°48.442 51.4 2.8 45 9.1
2004-05-06 08:47:51 51°12.107 2°48.446 52.1 2.7 46 9.1
2004-05-06 08:47:56 51°12.109 2°48.45 53.1 2.7 48 9.1
2004-05-06 08:48:00 51°12.111 2°48.454 54.2 2.8 46 9.1
2004-05-06 08:48:05 51°12.114 2°48.459 55.5 2.8 51 9.1
2004-05-06 08:48:10 51°12.116 2°48.463 56.8 2.7 50 9.1
2004-05-06 08:48:16 51°12.119 2°48.469 57.9 2.7 54 9.2
2004-05-06 08:48:20 51°12.121 2°48.473 59 2.7 53 9.1
2004-05-06 08:48:25 51°12.123 2°48.478 60.5 2.7 57 9.1
2004-05-06 08:48:30 51°12.125 2°48.483 61.5 2.7 59 9.1
2004-05-06 08:48:35 51°12.126 2°48.489 61.9 2.7 59 9.2
2004-05-06 08:48:40 51°12.128 2°48.494 62.1 2.7 58 9.1
2004-05-06 08:48:44 51°12.13 2°48.498 62.2 2.7 59 9.1
2004-05-06 08:48:50 51°12.132 2°48.504 62.4 2.7 61 9.1
2004-05-06 08:48:55 51°12.134 2°48.51 62.7 2.7 61 9.1
2004-05-06 08:49:00 51°12.136 2°48.515 63.3 2.7 61 9.1
2004-05-06 08:49:03 51°12.137 2°48.518 63.7 2.7 62 9.2
2004-05-06 08:49:10 51°12.14 2°48.526 63.8 2.8 62 9.1
2004-05-06 08:49:15 51°12.141 2°48.531 64.3 2.7 63 9.1
2004-05-06 08:49:19 51°12.143 2°48.536 64.5 2.8 61 9.1
2004-05-06 08:49:25 51°12.145 2°48.542 64.6 2.8 61 9.1
2004-05-06 08:49:30 51°12.146 2°48.548 64.9 2.8 66 9.2
2004-05-06 08:49:35 51°12.148 2°48.553 64.9 2.8 63 9.2
2004-05-06 08:49:40 51°12.15 2°48.559 65 2.8 65 9.1
2004-05-06 08:49:44 51°12.151 2°48.563 65.2 2.8 63 9.2
2004-05-06 08:49:50 51°12.153 2°48.57 65.3 2.8 66 9.2
2004-05-06 08:49:56 51°12.155 2°48.577 65.3 2.8 64 9.1
2004-05-06 08:50:00 51°12.156 2°48.581 65.4 2.8 66 9.2
2004-05-06 08:50:05 51°12.158 2°48.587 65.6 2.8 66 9.1
2004-05-06 08:50:11 51°12.16 2°48.593 65.8 2.8 64 9.1
2004-05-06 08:50:16 51°12.162 2°48.599 65.8 2.8 65 9.2
2004-05-06 08:50:20 51°12.163 2°48.603 65.8 2.8 65 9.1
2004-05-06 08:50:25 51°12.165 2°48.609 65.8 2.8 64 9.1
2004-05-06 08:50:30 51°12.167 2°48.614 65.8 2.8 64 9.2
2004-05-06 08:50:35 51°12.168 2°48.62 65.5 2.8 65 9.1
2004-05-06 08:50:40 51°12.17 2°48.625 65.3 2.8 63 9.1
2004-05-06 08:50:46 51°12.172 2°48.632 65.3 2.8 64 9.2
2004-05-06 08:50:50 51°12.174 2°48.636 65.3 2.8 60 9.1
2004-05-06 08:50:55 51°12.175 2°48.642 65.2 2.8 64 9.1
2004-05-06 08:51:00 51°12.177 2°48.648 65.3 2.8 63 9.1
2004-05-06 08:51:05 51°12.178 2°48.653 65.5 2.8 64 9.1
2004-05-06 08:51:10 51°12.18 2°48.659 65.6 2.8 64 9.1
2004-05-06 08:51:15 51°12.182 2°48.665 65.7 2.8 64 9.2
2004-05-06 08:51:19 51°12.183 2°48.669 65.7 2.8 64 9.1
2004-05-06 08:51:26 51°12.185 2°48.677 65.7 2.8 64 9.1
2004-05-06 08:51:30 51°12.187 2°48.682 65.8 2.8 64 9.1
2004-05-06 08:51:35 51°12.189 2°48.687 65.8 2.8 64 9.1
2004-05-06 08:51:40 51°12.19 2°48.693 65.8 2.8 63 9.1
2004-05-06 08:51:45 51°12.192 2°48.699 65.8 2.8 64 9.1
2004-05-06 08:51:50 51°12.194 2°48.704 65.8 2.8 63 9.1
2004-05-06 08:51:55 51°12.195 2°48.71 65.7 2.8 64 9.1
2004-05-06 08:52:00 51°12.197 2°48.715 65.6 2.8 64 9.1
2004-05-06 08:52:06 51°12.199 2°48.722 65.4 2.8 63 9.1
2004-05-06 08:52:10 51°12.201 2°48.726 65.2 2.8 62 9.1
2004-05-06 08:52:15 51°12.202 2°48.732 65 2.9 63 9.1
2004-05-06 08:52:20 51°12.204 2°48.738 64.7 2.8 62 9.1
2004-05-06 08:52:24 51°12.206 2°48.742 64.6 2.8 63 9.1
2004-05-06 08:52:30 51°12.208 2°48.749 64.4 2.8 60 9.1
2004-05-06 08:52:35 51°12.21 2°48.754 64.1 2.9 61 9.1
2004-05-06 08:52:40 51°12.212 2°48.76 63.8 2.8 60 9.1
2004-05-06 08:52:45 51°12.213 2°48.765 63.5 2.8 61 9.1
2004-05-06 08:52:50 51°12.215 2°48.771 63.2 2.8 59 9.1
2004-05-06 08:52:55 51°12.217 2°48.776 62.9 2.8 60 9.1